TimeCDT,TemperatureF,Dew PointF,Humidity,Sea Level PressureIn,VisibilityMPH,Wind Direction,Wind SpeedMPH,Gust SpeedMPH,PrecipitationIn,Events,Conditions,WindDirDegrees,DateUTC
12:52 AM,70.0,64.0,81,29.99,10.0,South,9.2,-,0.00,,Mostly Cloudy,170,2012-09-28 05:52:00
1:52 AM,70.0,64.0,81,29.99,10.0,ESE,4.6,-,N/A,,Clear,120,2012-09-28 06:52:00
2:52 AM,70.0,64.9,84,30.01,10.0,Calm,Calm,-,N/A,,Clear,0,2012-09-28 07:52:00
3:52 AM,69.1,64.9,87,30.01,10.0,NE,3.5,-,N/A,,Clear,40,2012-09-28 08:52:00
4:52 AM,68.0,66.0,93,30.00,10.0,Calm,Calm,-,N/A,,Partly Cloudy,0,2012-09-28 09:52:00
5:52 AM,66.9,66.0,97,30.01,10.0,NE,3.5,-,N/A,,Mostly Cloudy,50,2012-09-28 10:52:00
6:52 AM,68.0,66.0,93,30.02,10.0,East,3.5,-,N/A,,Overcast,90,2012-09-28 11:52:00
7:52 AM,68.0,66.0,93,30.04,10.0,Calm,Calm,-,N/A,,Overcast,0,2012-09-28 12:52:00
8:52 AM,68.0,66.0,93,30.05,10.0,East,3.5,-,0.00,,Overcast,90,2012-09-28 13:52:00
9:09 AM,68.0,66.2,94,30.11,10.0,East,3.5,-,N/A,,Overcast,80,2012-09-28 14:09:00
9:52 AM,69.1,66.9,93,30.06,6.0,Calm,Calm,-,0.00,Rain,Light Rain,0,2012-09-28 14:52:00
10:52 AM,71.1,66.9,87,30.06,10.0,ENE,4.6,-,0.01,,Overcast,70,2012-09-28 15:52:00
11:23 AM,71.6,68.0,88,30.11,9.0,East,6.9,-,0.00,Rain,Light Rain,90,2012-09-28 16:23:00
11:39 AM,69.8,68.0,94,30.12,1.8,SE,10.4,-,0.07,Rain,Heavy Rain,130,2012-09-28 16:39:00
11:50 AM,69.8,66.2,88,30.13,1.2,SE,12.7,19.6,0.20,Rain,Heavy Rain,130,2012-09-28 16:50:00
11:52 AM,68.0,66.9,96,30.07,1.0,ESE,13.8,-,0.25,Rain,Heavy Rain,120,2012-09-28 16:52:00
11:59 AM,66.2,66.2,100,30.13,0.5,SE,12.7,-,0.13,Fog-Rain,Heavy Rain,140,2012-09-28 16:59:00
12:06 PM,66.2,66.2,100,30.13,0.2,SE,6.9,-,0.55,Fog-Rain,Heavy Rain,130,2012-09-28 17:06:00
12:13 PM,66.2,66.2,100,30.12,0.5,South,5.8,-,0.83,Fog-Rain,Heavy Rain,170,2012-09-28 17:13:00
12:21 PM,66.2,66.2,100,30.11,0.8,SSE,10.4,-,1.03,Rain,Heavy Rain,160,2012-09-28 17:21:00
12:27 PM,66.2,64.4,94,30.11,2.0,SSE,11.5,-,1.07,Rain,Rain,150,2012-09-28 17:27:00
12:41 PM,66.2,66.2,100,30.12,2.0,ESE,5.8,-,1.13,Rain,Rain,120,2012-09-28 17:41:00
12:52 PM,66.9,66.0,97,30.06,2.5,SE,4.6,-,1.18,Rain,Rain,130,2012-09-28 17:52:00
1:52 PM,68.0,66.0,93,30.03,2.5,Calm,Calm,-,0.23,Rain,Rain,0,2012-09-28 18:52:00
1:59 PM,68.0,66.2,94,30.08,5.0,East,4.6,-,0.01,Rain,Light Rain,80,2012-09-28 18:59:00
2:52 PM,70.0,69.1,97,30.00,10.0,ENE,5.8,-,0.03,,Overcast,60,2012-09-28 19:52:00
3:21 PM,71.6,69.8,94,30.04,8.0,NE,6.9,-,0.01,Rain,Light Rain,40,2012-09-28 20:21:00
3:52 PM,72.0,69.1,91,29.97,10.0,NE,5.8,-,0.02,,Overcast,50,2012-09-28 20:52:00
4:52 PM,71.1,68.0,90,29.98,7.0,ENE,6.9,-,0.01,Rain,Light Rain,70,2012-09-28 21:52:00
5:52 PM,70.0,68.0,93,29.97,9.0,ENE,5.8,-,0.03,Rain,Light Rain,60,2012-09-28 22:52:00
6:52 PM,69.1,66.9,93,29.97,6.0,NE,5.8,-,0.04,Rain,Light Rain,40,2012-09-28 23:52:00
7:52 PM,69.1,66.9,93,29.98,9.0,ENE,4.6,-,0.04,Rain,Light Rain,60,2012-09-29 00:52:00
8:52 PM,66.9,64.9,93,29.98,10.0,NE,6.9,-,0.03,Rain,Light Rain,50,2012-09-29 01:52:00
9:52 PM,66.9,64.9,93,29.99,7.0,NE,3.5,-,0.04,Rain,Light Rain,40,2012-09-29 02:52:00
10:19 PM,66.2,66.2,100,30.05,6.0,NE,8.1,-,0.02,Rain,Light Rain,50,2012-09-29 03:19:00
10:52 PM,66.9,64.9,93,30.00,4.0,NE,4.6,-,0.18,Rain,Rain,50,2012-09-29 03:52:00
11:52 PM,66.9,66.0,97,29.98,6.0,NE,8.1,-,0.15,Rain,Light Rain,40,2012-09-29 04:52:00